Time;durP1;ratioP1;P1;durP2;ratioP2;P2;SDS_P1;SDS_P2;PMS_P1;PMS_P2;Temp;Humidity;BMP_temperature;BMP_pressure;BME280_temperature;BME280_humidity;BME280_pressure;Samples;Min_cycle;Max_cycle;Signal;HPM_P1;HPM_P2
2022/05/28 00:00:30;;;;;;;;;;;;;;;10.84;100.00;96126.94;1031092;28;19925;-74
2022/05/28 00:01:00;;;;;;;;;;;;;;;10.88;100.00;96122.75;1030959;28;19914;-74
2022/05/28 00:01:30;;;;;;;;;;;;;;;10.88;100.00;96130.63;1026952;28;19914;-76
2022/05/28 00:02:02;;;;;;;;;;;;;;;10.87;100.00;96121.19;1027031;28;19910;-75
2022/05/28 00:02:32;;;;;;;;;;;;;;;10.89;100.00;96120.94;1026917;28;19981;-74
2022/05/28 00:03:03;;;;;;;;;;;;;;;10.91;100.00;96119.63;1023142;28;19977;-73
2022/05/28 00:03:33;;;;;;;;;;;;;;;10.87;100.00;96126.44;1031514;28;19918;-75
2022/05/28 00:04:05;;;;;;;;;;;;;;;10.85;100.00;96124.06;1035272;28;19936;-75
2022/05/28 00:04:35;;;;;;;;;;;;;;;10.90;100.00;96123.31;1034998;28;19918;-76
2022/05/28 00:05:05;;;;;;;;;;;;;;;10.84;100.00;96121.69;1035099;28;19936;-74
2022/05/28 00:05:37;;;;;;;;;;;;;;;10.86;100.00;96124.84;1035125;28;19961;-74
2022/05/28 00:06:08;;;;;;;;;;;;;;;10.84;100.00;96126.94;1031131;28;19921;-74
2022/05/28 00:06:38;;;;;;;;;;;;;;;10.85;100.00;96128.53;1030777;28;19916;-74
2022/05/28 00:07:08;;;;;;;;;;;;;;;10.82;100.00;96124.56;1027152;28;19918;-73
2022/05/28 00:07:40;;;;;;;;;;;;;;;10.80;100.00;96121.41;1027213;28;19972;-76
2022/05/28 00:08:10;;;;;;;;;;;;;;;10.78;100.00;96117.47;1026799;28;19944;-75
2022/05/28 00:08:43;;;;;;;;;;;;;;;10.74;100.00;96119.03;1023117;28;19921;-75
2022/05/28 00:09:15;;;;;;;;;;;;;;;10.76;100.00;96119.53;1023106;28;20300;-74
2022/05/28 00:09:45;;;;;;;;;;;;;;;10.76;100.00;96120.31;1019126;29;20416;-74
2022/05/28 00:10:16;;;;;;;;;;;;;;;10.78;100.00;96120.09;1027383;28;19914;-73
2022/05/28 00:10:47;;;;;;;;;;;;;;;10.76;100.00;96122.16;1034996;28;19922;-74
2022/05/28 00:11:21;;;;;;;;;;;;;;;10.80;100.00;96120.63;1027167;28;19914;-75
2022/05/28 00:11:51;;;;;;;;;;;;;;;10.79;100.00;96119.03;1027579;28;20446;-75
2022/05/28 00:12:22;;;;;;;;;;;;;;;10.76;100.00;96116.91;1026816;28;19918;-74
2022/05/28 00:12:54;;;;;;;;;;;;;;;10.78;100.00;96117.47;1027499;28;19914;-75
2022/05/28 00:13:24;;;;;;;;;;;;;;;10.82;100.00;96114.06;1029958;28;20322;-75
2022/05/28 00:13:55;;;;;;;;;;;;;;;10.80;100.00;96118.78;1031461;28;19925;-75
2022/05/28 00:14:25;;;;;;;;;;;;;;;10.83;100.00;96120.09;1031034;28;19917;-75
2022/05/28 00:14:58;;;;;;;;;;;;;;;10.79;100.00;96119.03;1025744;28;20001;-74
2022/05/28 00:15:28;;;;;;;;;;;;;;;10.77;100.00;96121.94;1019667;29;20327;-75
2022/05/28 00:15:59;;;;;;;;;;;;;;;10.79;100.00;96113.78;1023559;28;19926;-74
2022/05/28 00:16:29;;;;;;;;;;;;;;;10.74;100.00;96121.63;1027597;28;19922;-74
2022/05/28 00:16:59;;;;;;;;;;;;;;;10.75;100.00;96117.97;1031278;28;19940;-74
2022/05/28 00:17:30;;;;;;;;;;;;;;;10.76;100.00;96114.28;1035243;28;19928;-75
2022/05/28 00:18:01;;;;;;;;;;;;;;;10.73;100.00;96120.03;1035294;28;19913;-75
2022/05/28 00:18:31;;;;;;;;;;;;;;;10.70;100.00;96115.31;1035190;28;19934;-74
2022/05/28 00:19:02;;;;;;;;;;;;;;;10.71;100.00;96116.91;1030882;28;19918;-74
2022/05/28 00:19:32;;;;;;;;;;;;;;;10.72;100.00;96119.25;1026777;28;19914;-75
2022/05/28 00:20:03;;;;;;;;;;;;;;;10.77;100.00;96115.88;1022449;28;19929;-74
2022/05/28 00:20:33;;;;;;;;;;;;;;;10.75;100.00;96118.75;1023038;29;19915;-75
2022/05/28 00:21:04;;;;;;;;;;;;;;;10.78;100.00;96113.00;1018881;29;19974;-75
2022/05/28 00:21:34;;;;;;;;;;;;;;;10.77;100.00;96119.31;1023038;29;19960;-75
2022/05/28 00:22:04;;;;;;;;;;;;;;;10.76;100.00;96114.28;1027293;28;19969;-75
2022/05/28 00:22:38;;;;;;;;;;;;;;;10.74;100.00;96111.16;1027332;28;20595;-76
2022/05/28 00:23:09;;;;;;;;;;;;;;;10.78;100.00;96118.25;1026966;28;20453;-73
2022/05/28 00:23:39;;;;;;;;;;;;;;;10.77;100.00;96114.06;1029012;28;19910;-75
2022/05/28 00:24:09;;;;;;;;;;;;;;;10.79;100.00;96116.41;1027041;28;20382;-74
2022/05/28 00:24:39;;;;;;;;;;;;;;;10.76;100.00;96116.91;1026965;28;19988;-73
2022/05/28 00:25:11;;;;;;;;;;;;;;;10.74;100.00;96111.16;1026946;28;19906;-75
2022/05/28 00:25:41;;;;;;;;;;;;;;;10.76;100.00;96111.66;1022890;28;19903;-74
2022/05/28 00:26:12;;;;;;;;;;;;;;;10.73;100.00;96110.34;1023169;28;19985;-74
2022/05/28 00:26:44;;;;;;;;;;;;;;;10.73;100.00;96114.78;1023279;28;20508;-75
2022/05/28 00:27:14;;;;;;;;;;;;;;;10.70;100.00;96113.47;1023487;28;19902;-74
2022/05/28 00:27:47;;;;;;;;;;;;;;;10.73;100.00;96114.78;1026739;28;19907;-74
2022/05/28 00:28:21;;;;;;;;;;;;;;;10.71;100.00;96106.41;1019495;29;19953;-75
2022/05/28 00:28:52;;;;;;;;;;;;;;;10.70;100.00;96110.06;1023012;29;19910;-77
2022/05/28 00:29:22;;;;;;;;;;;;;;;10.71;100.00;96109.81;1022710;28;19926;-75
2022/05/28 00:29:53;;;;;;;;;;;;;;;10.70;100.00;96110.06;1023508;28;19956;-74
2022/05/28 00:30:23;;;;;;;;;;;;;;;10.72;100.00;96105.34;1031003;28;20357;-75
2022/05/28 00:30:54;;;;;;;;;;;;;;;10.74;100.00;96109.31;1027014;28;19916;-76
2022/05/28 00:31:24;;;;;;;;;;;;;;;10.73;100.00;96112.16;1027122;28;19913;-76
2022/05/28 00:31:55;;;;;;;;;;;;;;;10.74;100.00;96111.94;1035186;28;20282;-74
2022/05/28 00:32:25;;;;;;;;;;;;;;;10.76;100.00;96111.66;1035236;28;20342;-75
2022/05/28 00:32:55;;;;;;;;;;;;;;;10.78;100.00;96106.97;1022852;28;19939;-73
2022/05/28 00:33:26;;;;;;;;;;;;;;;10.78;100.00;96112.22;1022895;29;19903;-75
2022/05/28 00:33:56;;;;;;;;;;;;;;;10.81;100.00;96111.69;1023082;29;20393;-74
2022/05/28 00:34:29;;;;;;;;;;;;;;;10.84;100.00;96108.56;1023207;28;19978;-73
2022/05/28 00:34:59;;;;;;;;;;;;;;;10.84;100.00;96105.94;1031455;28;20380;-76
2022/05/28 00:35:29;;;;;;;;;;;;;;;10.85;100.00;96103.06;1034949;28;19990;-74
2022/05/28 00:36:00;;;;;;;;;;;;;;;10.85;100.00;96105.69;1030949;28;19965;-74
2022/05/28 00:36:30;;;;;;;;;;;;;;;10.86;100.00;96103.84;1031396;28;19910;-76
2022/05/28 00:37:01;;;;;;;;;;;;;;;10.90;100.00;96104.94;1027030;28;19920;-75
2022/05/28 00:37:31;;;;;;;;;;;;;;;10.91;100.00;96101.25;1027014;28;19921;-75
2022/05/28 00:38:01;;;;;;;;;;;;;;;10.95;100.00;96102.31;1026761;28;20017;-75
2022/05/28 00:38:31;;;;;;;;;;;;;;;11.00;100.00;96101.53;1023102;28;19925;-74
2022/05/28 00:39:02;;;;;;;;;;;;;;;11.04;100.00;96098.16;1027104;28;19914;-74
2022/05/28 00:39:32;;;;;;;;;;;;;;;11.07;100.00;96102.13;1026567;28;19937;-73
2022/05/28 00:40:03;;;;;;;;;;;;;;;11.10;100.00;96099.00;1030376;28;20529;-74
2022/05/28 00:40:33;;;;;;;;;;;;;;;11.15;100.00;96096.38;1035290;28;19920;-75
2022/05/28 00:41:03;;;;;;;;;;;;;;;11.18;100.00;96106.38;1030999;28;19925;-75
2022/05/28 00:41:34;;;;;;;;;;;;;;;11.20;100.00;96098.22;1035051;28;19953;-76
2022/05/28 00:42:04;;;;;;;;;;;;;;;11.21;100.00;96105.84;1026901;28;19952;-74
2022/05/28 00:42:34;;;;;;;;;;;;;;;11.23;100.00;96102.94;1023063;29;20398;-75
2022/05/28 00:43:05;;;;;;;;;;;;;;;11.25;100.00;96106.13;1019104;29;19918;-75
2022/05/28 00:43:36;;;;;;;;;;;;;;;11.27;100.00;96098.78;1018959;29;19942;-74
2022/05/28 00:44:07;;;;;;;;;;;;;;;11.30;100.00;96100.88;1023086;28;19926;-75
2022/05/28 00:44:37;;;;;;;;;;;;;;;11.31;100.00;96099.84;1027333;28;19915;-76
2022/05/28 00:45:08;;;;;;;;;;;;;;;11.35;100.00;96105.38;1035096;28;20044;-76
2022/05/28 00:45:39;;;;;;;;;;;;;;;11.36;100.00;96097.22;1035206;28;19948;-75
2022/05/28 00:46:22;;;;;;;;;;;;;;;11.37;100.00;96095.38;1030848;28;20399;-76
2022/05/28 00:46:54;;;;;;;;;;;;;;;11.40;100.00;96097.50;1027078;28;19906;-76
2022/05/28 00:47:24;;;;;;;;;;;;;;;11.42;100.00;96090.94;1023100;29;19910;-75
2022/05/28 00:47:55;;;;;;;;;;;;;;;11.44;100.00;96091.47;1026727;28;19917;-75
2022/05/28 00:48:26;;;;;;;;;;;;;;;11.47;100.00;96098.06;1031590;28;19978;-74
2022/05/28 00:48:58;;;;;;;;;;;;;;;11.48;100.00;96097.78;1026497;28;19914;-76
2022/05/28 00:49:29;;;;;;;;;;;;;;;11.48;100.00;96095.16;1026912;28;19917;-75
2022/05/28 00:49:59;;;;;;;;;;;;;;;11.50;100.00;96098.34;1018064;29;19954;-76
2022/05/28 00:50:30;;;;;;;;;;;;;;;11.54;100.00;96094.13;1019530;28;20416;-74
2022/05/28 00:51:23;;;;;;;;;;;;;;;11.53;100.00;96097.78;1023048;28;19956;-77
2022/05/28 00:51:56;;;;;;;;;;;;;;;11.61;100.00;96087.84;1021970;28;19911;-75
2022/05/28 00:52:29;;;;;;;;;;;;;;;11.60;100.00;96096.75;1027139;28;20610;-75
2022/05/28 00:53:00;;;;;;;;;;;;;;;11.59;100.00;96095.97;1026559;28;19926;-75
2022/05/28 00:53:31;;;;;;;;;;;;;;;11.61;100.00;96093.88;1023056;29;20001;-74
2022/05/28 00:54:02;;;;;;;;;;;;;;;11.65;100.00;96094.94;1023920;28;19946;-74
2022/05/28 00:54:39;;;;;;;;;;;;;;;11.67;100.00;96097.28;1023861;28;20451;-75
2022/05/28 00:55:09;;;;;;;;;;;;;;;11.71;100.00;96087.84;1032040;28;19918;-75
2022/05/28 00:55:39;;;;;;;;;;;;;;;11.60;100.00;96075.72;1035108;28;20475;-74
2022/05/28 00:56:11;;;;;;;;;;;;;;;11.66;100.00;96087.84;1031015;28;19910;-74
2022/05/28 00:56:41;;;;;;;;;;;;;;;11.71;100.00;96099.16;1030726;28;19914;-74
2022/05/28 00:57:12;;;;;;;;;;;;;;;11.72;100.00;96094.69;1031193;28;20407;-76
2022/05/28 00:57:43;;;;;;;;;;;;;;;11.73;100.00;96098.88;1027109;28;19906;-75
2022/05/28 00:58:13;;;;;;;;;;;;;;;11.72;100.00;96095.47;1025238;28;19918;-75
2022/05/28 00:58:43;;;;;;;;;;;;;;;11.77;100.00;96098.13;1022671;29;19917;-73
2022/05/28 00:59:14;;;;;;;;;;;;;;;11.77;100.00;96094.72;1022985;28;19915;-76
2022/05/28 00:59:44;;;;;;;;;;;;;;;11.76;100.00;96096.53;1021421;28;20515;-75
2022/05/28 01:00:16;;;;;;;;;;;;;;;11.77;100.00;96098.13;1026789;28;20578;-75
2022/05/28 01:00:46;;;;;;;;;;;;;;;11.77;100.00;96106.00;1030928;28;20442;-75
2022/05/28 01:01:16;;;;;;;;;;;;;;;11.78;100.00;96094.44;1026953;28;19928;-74
2022/05/28 01:01:47;;;;;;;;;;;;;;;11.77;100.00;96097.34;1026388;28;19914;-76
2022/05/28 01:02:29;;;;;;;;;;;;;;;11.77;100.00;96097.34;1023059;29;19915;-74
2022/05/28 01:03:05;;;;;;;;;;;;;;;11.70;100.00;96102.03;1020280;29;19942;-76
2022/05/28 01:03:36;;;;;;;;;;;;;;;11.73;100.00;96107.56;1021340;29;20357;-74
2022/05/28 01:04:21;;;;;;;;;;;;;;;11.74;100.00;96097.84;1021326;29;20030;-76
2022/05/28 01:04:54;;;;;;;;;;;;;;;11.72;100.00;96095.47;1026749;28;19919;-75
2022/05/28 01:05:38;;;;;;;;;;;;;;;11.73;100.00;96098.88;1027039;28;19915;-74
2022/05/28 01:06:14;;;;;;;;;;;;;;;11.73;100.00;96096.25;1031011;28;19941;-75
2022/05/28 01:07:03;;;;;;;;;;;;;;;11.70;100.00;96092.34;1022681;28;19919;-74
2022/05/28 01:08:02;;;;;;;;;;;;;;;11.69;100.00;96097.84;1022963;29;20319;-74
2022/05/28 01:08:37;;;;;;;;;;;;;;;11.72;100.00;96100.72;1015102;29;19943;-74
2022/05/28 01:09:16;;;;;;;;;;;;;;;11.69;100.00;96100.47;1019201;29;19923;-75
2022/05/28 01:09:49;;;;;;;;;;;;;;;11.71;100.00;96096.53;1018456;29;19987;-74
2022/05/28 01:10:31;;;;;;;;;;;;;;;11.75;100.00;96107.31;1022694;29;19911;-74
2022/05/28 01:11:05;;;;;;;;;;;;;;;11.73;100.00;96098.88;1029715;28;19920;-76
2022/05/28 01:11:37;;;;;;;;;;;;;;;11.71;100.00;96101.00;1022441;28;20363;-73
2022/05/28 01:12:10;;;;;;;;;;;;;;;11.69;100.00;96096.00;1015183;29;20010;-75
2022/05/28 01:12:55;;;;;;;;;;;;;;;11.68;100.00;96098.91;1017235;29;19943;-75
2022/05/28 01:13:34;;;;;;;;;;;;;;;11.65;100.00;96094.94;1019589;28;20010;-73
2022/05/28 01:14:08;;;;;;;;;;;;;;;11.62;100.00;96098.09;1022291;29;19914;-76
2022/05/28 01:14:51;;;;;;;;;;;;;;;11.61;100.00;96087.84;1022869;29;19914;-72
2022/05/28 01:15:31;;;;;;;;;;;;;;;11.57;100.00;96098.88;1025766;28;19965;-75
2022/05/28 01:16:03;;;;;;;;;;;;;;;11.52;100.00;96090.19;1026770;28;19985;-74
2022/05/28 01:16:35;;;;;;;;;;;;;;;11.51;100.00;96092.03;1027562;28;19915;-74
2022/05/28 01:17:15;;;;;;;;;;;;;;;11.47;100.00;96093.59;1028870;28;19910;-74
2022/05/28 01:17:47;;;;;;;;;;;;;;;11.41;100.00;96089.38;1029547;28;19944;-74
2022/05/28 01:18:21;;;;;;;;;;;;;;;11.33;100.00;96092.47;1031719;28;20298;-75
2022/05/28 01:18:54;;;;;;;;;;;;;;;11.29;100.00;96092.22;1025796;28;19961;-76
2022/05/28 01:19:43;;;;;;;;;;;;;;;11.25;100.00;96091.16;1023377;28;19997;-75
2022/05/28 01:20:18;;;;;;;;;;;;;;;11.18;100.00;96089.81;1023093;29;19907;-73
2022/05/28 01:20:50;;;;;;;;;;;;;;;11.15;100.00;96090.31;1026750;28;19921;-75
2022/05/28 01:21:23;;;;;;;;;;;;;;;11.12;100.00;96090.84;1030779;28;20005;-75
2022/05/28 01:22:12;;;;;;;;;;;;;;;11.09;100.00;96092.91;1032913;28;19996;-76
2022/05/28 01:22:48;;;;;;;;;;;;;;;11.02;100.00;96089.75;1038632;28;20480;-74
2022/05/28 01:23:28;;;;;;;;;;;;;;;11.00;100.00;96086.59;1034986;28;19910;-74
2022/05/28 01:24:07;;;;;;;;;;;;;;;10.96;100.00;96093.38;1031811;28;19953;-74
2022/05/28 01:24:37;;;;;;;;;;;;;;;10.95;100.00;96091.03;1027523;28;20430;-74
2022/05/28 01:25:26;;;;;;;;;;;;;;;10.90;100.00;96099.69;1027729;28;19910;-75
2022/05/28 01:26:05;;;;;;;;;;;;;;;10.89;100.00;96097.28;1029500;28;19910;-73
2022/05/28 01:26:45;;;;;;;;;;;;;;;10.85;100.00;96099.66;1030711;28;20471;-74
2022/05/28 01:27:17;;;;;;;;;;;;;;;10.83;100.00;96099.09;1023869;28;19918;-74
2022/05/28 01:27:51;;;;;;;;;;;;;;;10.83;100.00;96104.34;1023112;29;20459;-74
2022/05/28 01:28:23;;;;;;;;;;;;;;;10.82;100.00;96102.78;1024592;28;19970;-75
2022/05/28 01:28:57;;;;;;;;;;;;;;;10.83;100.00;96094.66;1025107;28;19952;-75
2022/05/28 01:29:34;;;;;;;;;;;;;;;10.80;100.00;96097.00;1028607;28;20407;-74
2022/05/28 01:30:05;;;;;;;;;;;;;;;10.80;100.00;96097.00;1023398;29;19918;-76
2022/05/28 01:30:37;;;;;;;;;;;;;;;10.80;100.00;96094.38;1025128;28;19922;-73
2022/05/28 01:31:08;;;;;;;;;;;;;;;10.79;100.00;96088.31;1020364;29;19997;-76
2022/05/28 01:31:38;;;;;;;;;;;;;;;10.85;100.00;96097.03;1022621;28;19926;-74
2022/05/28 01:32:08;;;;;;;;;;;;;;;10.82;100.00;96098.31;1019831;29;19919;-75
2022/05/28 01:32:39;;;;;;;;;;;;;;;10.83;100.00;96096.47;1019334;29;19915;-75
2022/05/28 01:33:09;;;;;;;;;;;;;;;10.85;100.00;96097.03;1027648;28;19910;-76
2022/05/28 01:33:41;;;;;;;;;;;;;;;10.81;100.00;96102.00;1023571;29;19914;-75
2022/05/28 01:34:11;;;;;;;;;;;;;;;10.80;100.00;96099.63;1023385;29;20419;-75
2022/05/28 01:34:42;;;;;;;;;;;;;;;10.82;100.00;96097.53;1023450;29;19914;-74
2022/05/28 01:35:13;;;;;;;;;;;;;;;10.81;100.00;96094.13;1023896;28;19921;-74
2022/05/28 01:35:44;;;;;;;;;;;;;;;10.83;100.00;96093.84;1027565;28;20047;-73
2022/05/28 01:36:14;;;;;;;;;;;;;;;10.87;100.00;96094.94;1026830;28;19921;-76
2022/05/28 01:36:44;;;;;;;;;;;;;;;10.88;100.00;96093.88;1031483;28;20419;-75
2022/05/28 01:37:14;;;;;;;;;;;;;;;10.90;100.00;96098.88;1027539;28;19922;-74
2022/05/28 01:37:45;;;;;;;;;;;;;;;10.89;100.00;96089.41;1023449;29;19914;-72
2022/05/28 01:38:16;;;;;;;;;;;;;;;10.90;100.00;96096.25;1031419;28;19918;-74
2022/05/28 01:38:46;;;;;;;;;;;;;;;10.93;100.00;96090.47;1023789;28;19914;-74
2022/05/28 01:39:17;;;;;;;;;;;;;;;10.95;100.00;96091.81;1023271;28;19915;-75
2022/05/28 01:39:47;;;;;;;;;;;;;;;10.94;100.00;96090.25;1023305;28;20294;-74
2022/05/28 01:40:19;;;;;;;;;;;;;;;10.96;100.00;96093.38;1024926;28;19925;-73
2022/05/28 01:40:49;;;;;;;;;;;;;;;10.95;100.00;96091.81;1025279;28;19997;-75
2022/05/28 01:41:20;;;;;;;;;;;;;;;10.97;100.00;96088.94;1019590;29;20444;-74
2022/05/28 01:41:50;;;;;;;;;;;;;;;11.01;100.00;96090.00;1022988;28;20471;-75
2022/05/28 01:42:20;;;;;;;;;;;;;;;11.01;100.00;96096.06;1027054;28;19918;-74
2022/05/28 01:42:51;;;;;;;;;;;;;;;10.99;100.00;96092.88;1023499;28;19925;-75
2022/05/28 01:43:22;;;;;;;;;;;;;;;11.00;100.00;96097.09;1015653;29;19919;-76
2022/05/28 01:43:52;;;;;;;;;;;;;;;11.03;100.00;96093.16;1015973;29;19915;-73
2022/05/28 01:44:22;;;;;;;;;;;;;;;11.08;100.00;96090.56;1019223;29;19919;-74
2022/05/28 01:44:53;;;;;;;;;;;;;;;11.04;100.00;96092.91;1023726;29;19918;-75
2022/05/28 01:45:26;;;;;;;;;;;;;;;11.02;100.00;96094.22;1023504;29;19948;-75
2022/05/28 01:45:56;;;;;;;;;;;;;;;11.05;100.00;96093.69;1027942;28;19914;-74
2022/05/28 01:46:27;;;;;;;;;;;;;;;11.05;100.00;96097.09;1031352;28;19950;-74
2022/05/28 01:46:57;;;;;;;;;;;;;;;11.08;100.00;96096.59;1023580;29;19926;-74
2022/05/28 01:47:27;;;;;;;;;;;;;;;11.13;100.00;96092.41;1023695;29;19922;-74
2022/05/28 01:48:01;;;;;;;;;;;;;;;11.12;100.00;96090.84;1025130;28;19911;-74
2022/05/28 01:48:31;;;;;;;;;;;;;;;11.14;100.00;96092.16;1031512;28;19918;-74
2022/05/28 01:49:02;;;;;;;;;;;;;;;11.14;100.00;96094.00;1023970;28;19922;-74
2022/05/28 01:49:32;;;;;;;;;;;;;;;11.15;100.00;96095.59;1025372;28;20549;-71
2022/05/28 01:50:03;;;;;;;;;;;;;;;11.14;100.00;96094.00;1026719;28;19922;-74
2022/05/28 01:50:35;;;;;;;;;;;;;;;11.15;100.00;96087.69;1015790;29;20038;-73
2022/05/28 01:51:06;;;;;;;;;;;;;;;11.18;100.00;96097.69;1019990;29;19925;-75
2022/05/28 01:51:37;;;;;;;;;;;;;;;11.15;100.00;96088.47;1019886;29;20353;-74
2022/05/28 01:52:08;;;;;;;;;;;;;;;11.14;100.00;96088.75;1020519;28;19962;-74
2022/05/28 01:52:38;;;;;;;;;;;;;;;11.11;100.00;96089.28;1023635;28;20507;-74
2022/05/28 01:53:09;;;;;;;;;;;;;;;11.12;100.00;96080.34;1023662;28;19915;-76
2022/05/28 01:54:30;;;;;;;;;;;;;;;11.14;100.00;96078.25;1027779;28;19974;-75
2022/05/28 01:55:03;;;;;;;;;;;;;;;11.15;100.00;96079.81;1022376;29;20005;-75
2022/05/28 01:55:35;;;;;;;;;;;;;;;11.17;100.00;96075.13;1026767;28;20012;-74
2022/05/28 01:56:06;;;;;;;;;;;;;;;11.14;100.00;96076.41;1029580;28;19921;-74
2022/05/28 01:56:36;;;;;;;;;;;;;;;11.14;100.00;96076.41;1020690;28;19919;-74
2022/05/28 01:57:06;;;;;;;;;;;;;;;11.12;100.00;96077.72;1020720;29;19915;-74
2022/05/28 01:57:37;;;;;;;;;;;;;;;11.11;100.00;96078.75;1023996;29;19926;-74
2022/05/28 01:58:07;;;;;;;;;;;;;;;11.09;100.00;96082.41;1023728;28;19950;-76
2022/05/28 01:58:37;;;;;;;;;;;;;;;11.07;100.00;96074.03;1031539;28;20551;-74
2022/05/28 01:59:08;;;;;;;;;;;;;;;11.11;100.00;96078.75;1035597;28;20395;-76
2022/05/28 01:59:38;;;;;;;;;;;;;;;11.11;100.00;96079.53;1030191;28;20016;-75
2022/05/28 02:00:09;;;;;;;;;;;;;;;11.13;100.00;96076.66;1035573;28;19914;-75
2022/05/28 02:00:40;;;;;;;;;;;;;;;11.14;100.00;96073.00;1035552;28;19914;-74
2022/05/28 02:01:10;;;;;;;;;;;;;;;11.13;100.00;96076.66;1035641;28;19918;-74
2022/05/28 02:01:40;;;;;;;;;;;;;;;11.13;100.00;96076.66;1035396;28;20641;-76
2022/05/28 02:02:11;;;;;;;;;;;;;;;11.11;100.00;96076.91;1031654;28;19992;-74
2022/05/28 02:02:41;;;;;;;;;;;;;;;11.08;100.00;96072.97;1027658;28;19910;-74
2022/05/28 02:03:12;;;;;;;;;;;;;;;11.06;100.00;96076.88;1027519;28;20376;-73
2022/05/28 02:03:43;;;;;;;;;;;;;;;11.05;100.00;96083.97;1023736;28;19962;-74
2022/05/28 02:04:13;;;;;;;;;;;;;;;11.09;100.00;96081.63;1023914;28;19937;-75
2022/05/28 02:04:44;;;;;;;;;;;;;;;11.11;100.00;96084.81;1023706;29;20452;-75
2022/05/28 02:05:14;;;;;;;;;;;;;;;11.11;100.00;96079.53;1023847;28;19929;-77
2022/05/28 02:05:44;;;;;;;;;;;;;;;11.09;100.00;96076.38;1031815;28;20406;-74
2022/05/28 02:06:15;;;;;;;;;;;;;;;11.15;100.00;96079.81;1031842;28;19932;-75
2022/05/28 02:06:45;;;;;;;;;;;;;;;11.15;100.00;96080.59;1022198;28;19950;-74
2022/05/28 02:07:19;;;;;;;;;;;;;;;11.13;100.00;96071.41;1019639;29;20385;-76
2022/05/28 02:07:49;;;;;;;;;;;;;;;11.13;100.00;96076.66;1016371;29;20513;-75
2022/05/28 02:08:19;;;;;;;;;;;;;;;11.13;100.00;96077.44;1021050;28;19950;-75
2022/05/28 02:08:50;;;;;;;;;;;;;;;11.13;100.00;96077.44;1032239;28;19913;-75
2022/05/28 02:09:21;;;;;;;;;;;;;;;11.12;100.00;96077.72;1031631;28;19914;-74
2022/05/28 02:09:56;;;;;;;;;;;;;;;11.09;100.00;96076.38;1035067;28;19913;-74
2022/05/28 02:10:27;;;;;;;;;;;;;;;11.11;100.00;96078.75;1031822;28;20020;-75
2022/05/28 02:11:12;;;;;;;;;;;;;;;11.08;100.00;96075.59;1024462;28;19919;-75
2022/05/28 02:12:04;;;;;;;;;;;;;;;11.11;100.00;96074.28;1028917;28;19921;-74
2022/05/28 02:12:34;;;;;;;;;;;;;;;11.11;100.00;96076.91;1028733;28;19920;-74
2022/05/28 02:13:07;;;;;;;;;;;;;;;11.15;100.00;96080.59;1032104;28;19921;-74
2022/05/28 02:13:58;;;;;;;;;;;;;;;11.15;100.00;96080.59;1034814;28;19914;-74
2022/05/28 02:14:43;;;;;;;;;;;;;;;11.14;100.00;96079.03;1023507;29;20738;-75
2022/05/28 02:15:17;;;;;;;;;;;;;;;11.11;100.00;96079.53;1020095;28;19921;-75
2022/05/28 02:15:48;;;;;;;;;;;;;;;11.11;100.00;96076.91;1023826;29;19921;-74
2022/05/28 02:16:25;;;;;;;;;;;;;;;11.12;100.00;96072.47;1015943;29;19911;-74
2022/05/28 02:17:17;;;;;;;;;;;;;;;11.11;100.00;96089.28;1015471;29;19931;-75
2022/05/28 02:17:58;;;;;;;;;;;;;;;11.11;100.00;96078.75;1023639;29;20372;-74
2022/05/28 02:18:29;;;;;;;;;;;;;;;11.11;100.00;96087.44;1024194;28;20009;-75
2022/05/28 02:19:00;;;;;;;;;;;;;;;11.11;100.00;96086.66;1031887;28;19918;-75
2022/05/28 02:19:30;;;;;;;;;;;;;;;11.14;100.00;96081.66;1023581;29;19915;-73
2022/05/28 02:20:21;;;;;;;;;;;;;;;11.11;100.00;96081.38;1023444;28;19922;-74
2022/05/28 02:20:59;;;;;;;;;;;;;;;11.09;100.00;96081.63;1023851;29;19919;-76
2022/05/28 02:21:55;;;;;;;;;;;;;;;11.13;100.00;96085.31;1019706;29;19926;-75
2022/05/28 02:22:39;;;;;;;;;;;;;;;11.14;100.00;96079.03;1018801;28;19926;-75
2022/05/28 02:23:12;;;;;;;;;;;;;;;11.16;100.00;96081.41;1022110;28;19914;-74
2022/05/28 02:23:55;;;;;;;;;;;;;;;11.11;100.00;96078.75;1027518;28;19918;-76
2022/05/28 02:24:30;;;;;;;;;;;;;;;11.15;100.00;96083.22;1027668;28;19972;-73
2022/05/28 02:25:14;;;;;;;;;;;;;;;11.15;100.00;96085.06;1029048;28;19996;-73
2022/05/28 02:25:52;;;;;;;;;;;;;;;11.18;100.00;96079.31;1030717;28;19918;-75
2022/05/28 02:26:24;;;;;;;;;;;;;;;11.17;100.00;96078.53;1019797;29;20022;-76
2022/05/28 02:26:56;;;;;;;;;;;;;;;11.15;100.00;96074.56;1023980;29;19972;-75
2022/05/28 02:27:26;;;;;;;;;;;;;;;11.13;100.00;96074.03;1028939;28;19921;-74
2022/05/28 02:27:56;;;;;;;;;;;;;;;11.13;100.00;96081.91;1030986;28;19917;-75
2022/05/28 02:28:27;;;;;;;;;;;;;;;11.13;100.00;96074.81;1031727;28;19988;-75
2022/05/28 02:28:58;;;;;;;;;;;;;;;11.15;100.00;96069.31;1031777;28;19965;-76
2022/05/28 02:29:30;;;;;;;;;;;;;;;11.16;100.00;96070.88;1031666;28;19918;-75
2022/05/28 02:30:00;;;;;;;;;;;;;;;11.19;100.00;96065.91;1027488;28;20315;-76
2022/05/28 02:30:31;;;;;;;;;;;;;;;11.21;100.00;96063.81;1028147;28;19926;-74
2022/05/28 02:31:09;;;;;;;;;;;;;;;11.24;100.00;96065.94;1031666;28;20391;-74
2022/05/28 02:31:43;;;;;;;;;;;;;;;11.24;100.00;96057.28;1029479;28;20472;-73
2022/05/28 02:32:14;;;;;;;;;;;;;;;11.22;100.00;96062.78;1029302;28;19918;-75
2022/05/28 02:32:45;;;;;;;;;;;;;;;11.21;100.00;96063.03;1027786;28;19918;-75
2022/05/28 02:33:15;;;;;;;;;;;;;;;11.21;100.00;96058.56;1024397;28;19923;-73
2022/05/28 02:33:45;;;;;;;;;;;;;;;11.16;100.00;96061.16;1023993;28;19926;-74
2022/05/28 02:34:16;;;;;;;;;;;;;;;11.15;100.00;96061.44;1019465;29;19923;-73
2022/05/28 02:34:47;;;;;;;;;;;;;;;11.16;100.00;96060.38;1016059;29;20589;-75
2022/05/28 02:35:17;;;;;;;;;;;;;;;11.16;100.00;96061.16;1019958;29;19915;-75
2022/05/28 02:35:47;;;;;;;;;;;;;;;11.13;100.00;96055.63;1024204;28;19922;-74
2022/05/28 02:36:18;;;;;;;;;;;;;;;11.09;100.00;96055.38;1031489;28;19913;-75
2022/05/28 02:36:48;;;;;;;;;;;;;;;11.09;100.00;96061.41;1035958;28;19913;-75
2022/05/28 02:37:20;;;;;;;;;;;;;;;11.11;100.00;96063.00;1031775;28;20034;-73
2022/05/28 02:37:50;;;;;;;;;;;;;;;11.05;100.00;96064.81;1023708;29;19914;-76
2022/05/28 02:38:20;;;;;;;;;;;;;;;11.04;100.00;96069.28;1023689;28;19922;-75
2022/05/28 02:38:53;;;;;;;;;;;;;;;11.03;100.00;96072.16;1028354;28;19922;-77
2022/05/28 02:39:24;;;;;;;;;;;;;;;11.01;100.00;96069.00;1027743;28;20485;-75
2022/05/28 02:39:54;;;;;;;;;;;;;;;11.00;100.00;96070.84;1027573;28;19918;-75
2022/05/28 02:40:24;;;;;;;;;;;;;;;11.00;100.00;96067.41;1031695;28;19922;-74
2022/05/28 02:40:55;;;;;;;;;;;;;;;10.98;100.00;96069.50;1031805;28;20371;-74
2022/05/28 02:41:25;;;;;;;;;;;;;;;10.98;100.00;96077.41;1031541;28;19929;-74
2022/05/28 02:41:56;;;;;;;;;;;;;;;10.98;100.00;96067.69;1027877;28;19933;-74
2022/05/28 02:42:30;;;;;;;;;;;;;;;11.00;100.00;96073.47;1027594;28;20470;-74
2022/05/28 02:43:01;;;;;;;;;;;;;;;10.99;100.00;96082.38;1024038;28;19926;-75
2022/05/28 02:43:31;;;;;;;;;;;;;;;10.99;100.00;96071.09;1028459;28;19925;-76
2022/05/28 02:44:02;;;;;;;;;;;;;;;10.98;100.00;96078.19;1027859;28;19968;-73
2022/05/28 02:44:33;;;;;;;;;;;;;;;10.93;100.00;96083.41;1027837;28;19914;-74
2022/05/28 02:45:03;;;;;;;;;;;;;;;10.96;100.00;96084.72;1031740;28;19925;-74
2022/05/28 02:45:33;;;;;;;;;;;;;;;10.95;100.00;96085.78;1031923;28;20012;-73
2022/05/28 02:46:04;;;;;;;;;;;;;;;10.95;100.00;96086.56;1035771;28;19964;-74
2022/05/28 02:46:35;;;;;;;;;;;;;;;10.91;100.00;96085.50;1027717;28;19922;-73
2022/05/28 02:47:05;;;;;;;;;;;;;;;10.91;100.00;96088.13;1027890;28;19918;-75
2022/05/28 02:47:36;;;;;;;;;;;;;;;10.91;100.00;96089.97;1027722;28;19914;-74
2022/05/28 02:48:07;;;;;;;;;;;;;;;10.92;100.00;96091.53;1019967;28;20455;-74
2022/05/28 02:48:38;;;;;;;;;;;;;;;10.91;100.00;96090.75;1023771;29;19924;-74